sensor_id;sensor_type;location;lat;lon;timestamp;P1;durP1;ratioP1;P2;durP2;ratioP2
21843;SDS011;11084;52.482;9.108;2022-09-13T00:00:56;3.67;;;2.93;;
21843;SDS011;11084;52.482;9.108;2022-09-13T00:03:23;4.13;;;2.67;;
21843;SDS011;11084;52.482;9.108;2022-09-13T00:05:50;4.33;;;2.73;;
21843;SDS011;11084;52.482;9.108;2022-09-13T00:08:17;3.53;;;2.40;;
21843;SDS011;11084;52.482;9.108;2022-09-13T00:10:43;3.50;;;2.53;;
21843;SDS011;11084;52.482;9.108;2022-09-13T00:13:11;7.70;;;2.50;;
21843;SDS011;11084;52.482;9.108;2022-09-13T00:15:45;5.87;;;2.80;;
21843;SDS011;11084;52.482;9.108;2022-09-13T00:18:15;3.60;;;2.60;;
21843;SDS011;11084;52.482;9.108;2022-09-13T00:20:42;4.93;;;2.83;;
21843;SDS011;11084;52.482;9.108;2022-09-13T00:23:11;3.97;;;2.33;;
21843;SDS011;11084;52.482;9.108;2022-09-13T00:25:37;4.80;;;2.83;;
21843;SDS011;11084;52.482;9.108;2022-09-13T00:28:06;3.77;;;2.67;;
21843;SDS011;11084;52.482;9.108;2022-09-13T00:30:32;3.37;;;2.60;;
21843;SDS011;11084;52.482;9.108;2022-09-13T00:32:58;5.60;;;2.50;;
21843;SDS011;11084;52.482;9.108;2022-09-13T00:35:28;3.03;;;2.23;;
21843;SDS011;11084;52.482;9.108;2022-09-13T00:37:57;4.80;;;2.60;;
21843;SDS011;11084;52.482;9.108;2022-09-13T00:40:25;3.50;;;2.63;;
21843;SDS011;11084;52.482;9.108;2022-09-13T00:42:51;6.50;;;2.93;;
21843;SDS011;11084;52.482;9.108;2022-09-13T00:45:18;5.53;;;2.83;;
21843;SDS011;11084;52.482;9.108;2022-09-13T00:47:52;5.30;;;2.53;;
21843;SDS011;11084;52.482;9.108;2022-09-13T00:50:33;3.60;;;2.20;;
21843;SDS011;11084;52.482;9.108;2022-09-13T00:53:10;3.23;;;2.43;;
21843;SDS011;11084;52.482;9.108;2022-09-13T00:55:59;9.93;;;3.00;;
21843;SDS011;11084;52.482;9.108;2022-09-13T00:58:43;5.93;;;2.80;;
21843;SDS011;11084;52.482;9.108;2022-09-13T01:01:16;3.20;;;2.30;;
21843;SDS011;11084;52.482;9.108;2022-09-13T01:03:45;3.73;;;2.50;;
21843;SDS011;11084;52.482;9.108;2022-09-13T01:06:23;4.83;;;2.93;;
21843;SDS011;11084;52.482;9.108;2022-09-13T01:08:57;3.67;;;2.60;;
21843;SDS011;11084;52.482;9.108;2022-09-13T01:11:48;4.30;;;2.97;;
21843;SDS011;11084;52.482;9.108;2022-09-13T01:14:43;7.87;;;2.67;;
21843;SDS011;11084;52.482;9.108;2022-09-13T01:17:11;6.90;;;2.80;;
21843;SDS011;11084;52.482;9.108;2022-09-13T01:19:38;3.33;;;2.30;;
21843;SDS011;11084;52.482;9.108;2022-09-13T01:31:22;5.53;;;2.77;;
21843;SDS011;11084;52.482;9.108;2022-09-13T01:45:46;8.33;;;2.40;;
21843;SDS011;11084;52.482;9.108;2022-09-13T01:48:34;5.73;;;2.93;;
21843;SDS011;11084;52.482;9.108;2022-09-13T01:51:47;3.13;;;2.40;;
21843;SDS011;11084;52.482;9.108;2022-09-13T02:00:14;3.10;;;2.40;;
21843;SDS011;11084;52.482;9.108;2022-09-13T02:02:49;5.37;;;2.70;;
21843;SDS011;11084;52.482;9.108;2022-09-13T02:05:26;6.03;;;2.93;;
21843;SDS011;11084;52.482;9.108;2022-09-13T02:08:14;8.43;;;2.63;;
21843;SDS011;11084;52.482;9.108;2022-09-13T02:10:55;4.43;;;2.80;;
21843;SDS011;11084;52.482;9.108;2022-09-13T02:13:53;8.07;;;3.13;;
21843;SDS011;11084;52.482;9.108;2022-09-13T02:16:37;6.67;;;3.43;;
21843;SDS011;11084;52.482;9.108;2022-09-13T02:19:22;5.37;;;3.00;;
21843;SDS011;11084;52.482;9.108;2022-09-13T02:22:23;4.90;;;3.20;;
21843;SDS011;11084;52.482;9.108;2022-09-13T02:25:05;4.97;;;3.20;;
21843;SDS011;11084;52.482;9.108;2022-09-13T02:27:38;5.07;;;2.97;;
21843;SDS011;11084;52.482;9.108;2022-09-13T02:30:08;3.80;;;3.00;;
21843;SDS011;11084;52.482;9.108;2022-09-13T02:35:07;6.43;;;2.83;;
21843;SDS011;11084;52.482;9.108;2022-09-13T02:37:59;4.43;;;3.13;;
21843;SDS011;11084;52.482;9.108;2022-09-13T02:40:36;5.03;;;3.20;;
21843;SDS011;11084;52.482;9.108;2022-09-13T02:43:08;6.23;;;2.70;;
21843;SDS011;11084;52.482;9.108;2022-09-13T02:45:41;7.43;;;3.63;;
21843;SDS011;11084;52.482;9.108;2022-09-13T02:48:57;5.27;;;3.33;;
21843;SDS011;11084;52.482;9.108;2022-09-13T02:51:37;4.70;;;3.13;;
21843;SDS011;11084;52.482;9.108;2022-09-13T02:54:37;9.10;;;3.77;;
21843;SDS011;11084;52.482;9.108;2022-09-13T03:00:16;8.07;;;3.33;;
21843;SDS011;11084;52.482;9.108;2022-09-13T03:02:42;11.63;;;3.57;;
21843;SDS011;11084;52.482;9.108;2022-09-13T03:05:10;11.03;;;3.63;;
21843;SDS011;11084;52.482;9.108;2022-09-13T03:07:36;6.40;;;3.57;;
21843;SDS011;11084;52.482;9.108;2022-09-13T03:10:04;4.90;;;3.43;;
21843;SDS011;11084;52.482;9.108;2022-09-13T03:21:22;7.43;;;3.70;;
21843;SDS011;11084;52.482;9.108;2022-09-13T03:32:23;15.77;;;3.43;;
21843;SDS011;11084;52.482;9.108;2022-09-13T03:38:11;9.37;;;4.03;;
21843;SDS011;11084;52.482;9.108;2022-09-13T03:43:24;7.00;;;4.40;;
21843;SDS011;11084;52.482;9.108;2022-09-13T03:46:01;7.33;;;3.83;;
21843;SDS011;11084;52.482;9.108;2022-09-13T03:48:51;6.37;;;3.90;;
21843;SDS011;11084;52.482;9.108;2022-09-13T03:51:18;5.47;;;3.77;;
21843;SDS011;11084;52.482;9.108;2022-09-13T03:53:46;8.97;;;4.53;;
21843;SDS011;11084;52.482;9.108;2022-09-13T03:56:20;8.70;;;4.77;;
21843;SDS011;11084;52.482;9.108;2022-09-13T03:58:47;8.93;;;4.37;;
21843;SDS011;11084;52.482;9.108;2022-09-13T04:01:19;6.03;;;3.97;;
21843;SDS011;11084;52.482;9.108;2022-09-13T04:03:47;5.93;;;4.33;;
21843;SDS011;11084;52.482;9.108;2022-09-13T04:06:14;9.27;;;4.63;;
21843;SDS011;11084;52.482;9.108;2022-09-13T04:08:40;9.17;;;3.97;;
21843;SDS011;11084;52.482;9.108;2022-09-13T04:11:06;7.87;;;4.20;;
21843;SDS011;11084;52.482;9.108;2022-09-13T04:13:34;6.13;;;4.17;;
21843;SDS011;11084;52.482;9.108;2022-09-13T04:16:04;8.07;;;5.17;;
21843;SDS011;11084;52.482;9.108;2022-09-13T04:18:31;10.03;;;4.23;;
21843;SDS011;11084;52.482;9.108;2022-09-13T04:20:58;7.13;;;4.03;;
21843;SDS011;11084;52.482;9.108;2022-09-13T04:23:26;6.43;;;4.53;;
21843;SDS011;11084;52.482;9.108;2022-09-13T04:25:54;9.43;;;5.50;;
21843;SDS011;11084;52.482;9.108;2022-09-13T04:28:25;7.67;;;4.57;;
21843;SDS011;11084;52.482;9.108;2022-09-13T04:30:51;6.00;;;3.93;;
21843;SDS011;11084;52.482;9.108;2022-09-13T04:33:19;9.73;;;4.73;;
21843;SDS011;11084;52.482;9.108;2022-09-13T04:35:45;6.67;;;4.17;;
21843;SDS011;11084;52.482;9.108;2022-09-13T04:38:11;6.07;;;4.30;;
21843;SDS011;11084;52.482;9.108;2022-09-13T04:40:37;5.70;;;3.87;;
21843;SDS011;11084;52.482;9.108;2022-09-13T04:43:03;7.00;;;4.37;;
21843;SDS011;11084;52.482;9.108;2022-09-13T04:45:29;8.83;;;4.17;;
21843;SDS011;11084;52.482;9.108;2022-09-13T04:47:55;10.57;;;4.07;;
21843;SDS011;11084;52.482;9.108;2022-09-13T04:50:22;9.03;;;4.10;;
21843;SDS011;11084;52.482;9.108;2022-09-13T04:52:49;6.40;;;4.07;;
21843;SDS011;11084;52.482;9.108;2022-09-13T04:55:19;6.47;;;4.00;;
21843;SDS011;11084;52.482;9.108;2022-09-13T04:57:45;7.53;;;3.73;;
21843;SDS011;11084;52.482;9.108;2022-09-13T05:00:11;6.33;;;3.53;;
21843;SDS011;11084;52.482;9.108;2022-09-13T05:02:37;4.90;;;3.27;;
21843;SDS011;11084;52.482;9.108;2022-09-13T05:05:03;8.07;;;3.90;;
21843;SDS011;11084;52.482;9.108;2022-09-13T05:07:30;8.67;;;4.20;;
21843;SDS011;11084;52.482;9.108;2022-09-13T05:09:56;4.27;;;3.30;;
21843;SDS011;11084;52.482;9.108;2022-09-13T05:12:21;6.60;;;3.97;;
21843;SDS011;11084;52.482;9.108;2022-09-13T05:14:47;4.57;;;3.57;;
21843;SDS011;11084;52.482;9.108;2022-09-13T05:17:13;5.53;;;3.73;;
21843;SDS011;11084;52.482;9.108;2022-09-13T05:19:39;5.60;;;3.67;;
21843;SDS011;11084;52.482;9.108;2022-09-13T05:22:05;5.67;;;3.60;;
21843;SDS011;11084;52.482;9.108;2022-09-13T05:24:31;5.57;;;3.87;;
21843;SDS011;11084;52.482;9.108;2022-09-13T05:26:57;7.90;;;4.03;;
21843;SDS011;11084;52.482;9.108;2022-09-13T05:29:24;6.63;;;4.10;;
21843;SDS011;11084;52.482;9.108;2022-09-13T05:31:50;12.53;;;3.90;;
21843;SDS011;11084;52.482;9.108;2022-09-13T05:34:16;7.07;;;3.23;;
21843;SDS011;11084;52.482;9.108;2022-09-13T05:36:43;7.43;;;4.07;;
21843;SDS011;11084;52.482;9.108;2022-09-13T05:39:14;5.23;;;3.50;;
21843;SDS011;11084;52.482;9.108;2022-09-13T05:41:48;5.70;;;3.90;;
21843;SDS011;11084;52.482;9.108;2022-09-13T05:44:14;7.40;;;3.97;;
21843;SDS011;11084;52.482;9.108;2022-09-13T05:46:40;5.80;;;4.23;;
21843;SDS011;11084;52.482;9.108;2022-09-13T05:49:07;5.43;;;3.63;;
21843;SDS011;11084;52.482;9.108;2022-09-13T05:51:33;7.47;;;3.37;;
21843;SDS011;11084;52.482;9.108;2022-09-13T05:53:59;6.50;;;4.03;;
21843;SDS011;11084;52.482;9.108;2022-09-13T05:56:27;9.00;;;3.40;;
21843;SDS011;11084;52.482;9.108;2022-09-13T05:58:54;5.87;;;3.90;;
21843;SDS011;11084;52.482;9.108;2022-09-13T06:01:21;6.87;;;4.10;;
21843;SDS011;11084;52.482;9.108;2022-09-13T06:03:54;8.23;;;3.60;;
21843;SDS011;11084;52.482;9.108;2022-09-13T06:06:22;5.50;;;3.70;;
21843;SDS011;11084;52.482;9.108;2022-09-13T06:08:53;7.33;;;4.03;;
21843;SDS011;11084;52.482;9.108;2022-09-13T06:11:20;6.87;;;4.03;;
21843;SDS011;11084;52.482;9.108;2022-09-13T06:13:46;7.67;;;4.30;;
21843;SDS011;11084;52.482;9.108;2022-09-13T06:16:13;8.70;;;4.00;;
21843;SDS011;11084;52.482;9.108;2022-09-13T06:18:41;6.60;;;4.27;;
21843;SDS011;11084;52.482;9.108;2022-09-13T06:21:12;6.27;;;3.93;;
21843;SDS011;11084;52.482;9.108;2022-09-13T06:23:42;6.40;;;3.57;;
21843;SDS011;11084;52.482;9.108;2022-09-13T06:26:11;5.97;;;3.60;;
21843;SDS011;11084;52.482;9.108;2022-09-13T06:28:40;5.03;;;3.43;;
21843;SDS011;11084;52.482;9.108;2022-09-13T06:31:11;13.43;;;4.83;;
21843;SDS011;11084;52.482;9.108;2022-09-13T06:33:39;6.40;;;4.17;;
21843;SDS011;11084;52.482;9.108;2022-09-13T06:36:12;7.10;;;3.80;;
21843;SDS011;11084;52.482;9.108;2022-09-13T06:38:42;5.53;;;3.67;;
21843;SDS011;11084;52.482;9.108;2022-09-13T06:41:10;22.40;;;4.23;;
21843;SDS011;11084;52.482;9.108;2022-09-13T06:43:39;5.53;;;3.60;;
21843;SDS011;11084;52.482;9.108;2022-09-13T06:46:10;6.30;;;3.80;;
21843;SDS011;11084;52.482;9.108;2022-09-13T06:48:40;6.57;;;3.67;;
21843;SDS011;11084;52.482;9.108;2022-09-13T06:51:11;11.50;;;4.30;;
21843;SDS011;11084;52.482;9.108;2022-09-13T06:53:44;6.67;;;3.40;;
21843;SDS011;11084;52.482;9.108;2022-09-13T06:56:15;6.30;;;4.10;;
21843;SDS011;11084;52.482;9.108;2022-09-13T06:58:53;7.87;;;4.23;;
21843;SDS011;11084;52.482;9.108;2022-09-13T07:01:23;14.03;;;5.73;;
21843;SDS011;11084;52.482;9.108;2022-09-13T07:04:00;8.50;;;4.40;;
21843;SDS011;11084;52.482;9.108;2022-09-13T07:06:33;7.30;;;3.97;;
21843;SDS011;11084;52.482;9.108;2022-09-13T07:09:03;11.47;;;4.27;;
21843;SDS011;11084;52.482;9.108;2022-09-13T07:11:37;7.37;;;3.90;;
21843;SDS011;11084;52.482;9.108;2022-09-13T07:14:05;9.77;;;4.30;;
21843;SDS011;11084;52.482;9.108;2022-09-13T07:16:33;9.00;;;3.87;;
21843;SDS011;11084;52.482;9.108;2022-09-13T07:19:03;5.67;;;4.00;;
21843;SDS011;11084;52.482;9.108;2022-09-13T07:21:32;5.83;;;4.03;;
21843;SDS011;11084;52.482;9.108;2022-09-13T07:23:59;12.33;;;4.37;;
21843;SDS011;11084;52.482;9.108;2022-09-13T07:26:26;11.27;;;4.50;;
21843;SDS011;11084;52.482;9.108;2022-09-13T07:28:53;7.03;;;4.43;;
21843;SDS011;11084;52.482;9.108;2022-09-13T07:31:24;12.60;;;4.40;;
21843;SDS011;11084;52.482;9.108;2022-09-13T07:34:07;10.13;;;4.60;;
21843;SDS011;11084;52.482;9.108;2022-09-13T07:36:37;10.03;;;4.73;;
21843;SDS011;11084;52.482;9.108;2022-09-13T07:39:03;9.27;;;4.87;;
21843;SDS011;11084;52.482;9.108;2022-09-13T07:41:31;9.40;;;5.40;;
21843;SDS011;11084;52.482;9.108;2022-09-13T07:43:58;7.70;;;4.37;;
21843;SDS011;11084;52.482;9.108;2022-09-13T07:46:26;8.90;;;5.07;;
21843;SDS011;11084;52.482;9.108;2022-09-13T07:48:59;9.50;;;5.53;;
21843;SDS011;11084;52.482;9.108;2022-09-13T07:51:27;9.33;;;5.70;;
21843;SDS011;11084;52.482;9.108;2022-09-13T07:53:57;8.10;;;5.50;;
21843;SDS011;11084;52.482;9.108;2022-09-13T07:56:27;10.23;;;5.57;;
21843;SDS011;11084;52.482;9.108;2022-09-13T07:58:58;14.67;;;6.00;;
21843;SDS011;11084;52.482;9.108;2022-09-13T08:01:32;7.90;;;5.33;;
21843;SDS011;11084;52.482;9.108;2022-09-13T08:04:07;10.33;;;5.87;;
21843;SDS011;11084;52.482;9.108;2022-09-13T08:06:42;12.27;;;5.30;;
21843;SDS011;11084;52.482;9.108;2022-09-13T08:09:09;10.27;;;5.97;;
21843;SDS011;11084;52.482;9.108;2022-09-13T08:11:37;12.07;;;5.23;;
21843;SDS011;11084;52.482;9.108;2022-09-13T08:14:06;14.70;;;6.23;;
21843;SDS011;11084;52.482;9.108;2022-09-13T08:16:35;9.57;;;5.40;;
21843;SDS011;11084;52.482;9.108;2022-09-13T08:19:01;9.40;;;5.37;;
21843;SDS011;11084;52.482;9.108;2022-09-13T08:21:33;9.70;;;5.87;;
21843;SDS011;11084;52.482;9.108;2022-09-13T08:24:05;12.43;;;6.13;;
21843;SDS011;11084;52.482;9.108;2022-09-13T08:26:34;11.87;;;6.03;;
21843;SDS011;11084;52.482;9.108;2022-09-13T08:29:01;12.27;;;5.80;;
21843;SDS011;11084;52.482;9.108;2022-09-13T08:31:30;9.70;;;6.23;;
21843;SDS011;11084;52.482;9.108;2022-09-13T08:33:57;11.73;;;5.97;;
21843;SDS011;11084;52.482;9.108;2022-09-13T08:36:24;9.43;;;6.07;;
21843;SDS011;11084;52.482;9.108;2022-09-13T08:38:55;15.70;;;7.33;;
21843;SDS011;11084;52.482;9.108;2022-09-13T08:41:37;12.77;;;6.77;;
21843;SDS011;11084;52.482;9.108;2022-09-13T08:49:47;14.83;;;8.17;;
21843;SDS011;11084;52.482;9.108;2022-09-13T08:52:29;16.50;;;6.73;;
21843;SDS011;11084;52.482;9.108;2022-09-13T09:00:58;16.90;;;8.50;;
21843;SDS011;11084;52.482;9.108;2022-09-13T09:04:01;12.60;;;7.50;;
21843;SDS011;11084;52.482;9.108;2022-09-13T09:06:54;14.13;;;7.83;;
21843;SDS011;11084;52.482;9.108;2022-09-13T09:09:53;14.43;;;7.57;;
21843;SDS011;11084;52.482;9.108;2022-09-13T09:12:38;13.37;;;8.03;;
21843;SDS011;11084;52.482;9.108;2022-09-13T09:15:29;18.17;;;8.30;;
21843;SDS011;11084;52.482;9.108;2022-09-13T09:18:02;12.87;;;7.97;;
21843;SDS011;11084;52.482;9.108;2022-09-13T09:23:19;17.80;;;7.90;;
21843;SDS011;11084;52.482;9.108;2022-09-13T09:25:54;15.53;;;8.13;;
21843;SDS011;11084;52.482;9.108;2022-09-13T09:28:49;11.17;;;7.03;;
21843;SDS011;11084;52.482;9.108;2022-09-13T09:37:23;12.60;;;7.87;;
21843;SDS011;11084;52.482;9.108;2022-09-13T09:39:52;15.43;;;8.87;;
21843;SDS011;11084;52.482;9.108;2022-09-13T09:42:27;14.50;;;8.70;;
21843;SDS011;11084;52.482;9.108;2022-09-13T09:45:05;13.90;;;8.27;;
21843;SDS011;11084;52.482;9.108;2022-09-13T09:47:58;14.43;;;8.43;;
21843;SDS011;11084;52.482;9.108;2022-09-13T09:50:33;15.93;;;8.43;;
21843;SDS011;11084;52.482;9.108;2022-09-13T09:53:10;12.77;;;7.90;;
21843;SDS011;11084;52.482;9.108;2022-09-13T09:56:01;14.67;;;7.93;;
21843;SDS011;11084;52.482;9.108;2022-09-13T09:58:43;12.83;;;7.50;;
21843;SDS011;11084;52.482;9.108;2022-09-13T10:06:32;13.63;;;7.03;;
21843;SDS011;11084;52.482;9.108;2022-09-13T10:09:06;10.23;;;6.07;;
21843;SDS011;11084;52.482;9.108;2022-09-13T10:14:09;9.33;;;5.30;;
21843;SDS011;11084;52.482;9.108;2022-09-13T10:17:20;10.27;;;5.37;;
21843;SDS011;11084;52.482;9.108;2022-09-13T10:19:51;10.80;;;5.43;;
21843;SDS011;11084;52.482;9.108;2022-09-13T10:25:38;8.43;;;4.53;;
21843;SDS011;11084;52.482;9.108;2022-09-13T10:28:09;10.77;;;5.33;;
21843;SDS011;11084;52.482;9.108;2022-09-13T10:31:03;8.87;;;5.40;;
21843;SDS011;11084;52.482;9.108;2022-09-13T10:33:39;11.90;;;6.03;;
21843;SDS011;11084;52.482;9.108;2022-09-13T10:36:17;7.77;;;5.40;;
21843;SDS011;11084;52.482;9.108;2022-09-13T10:38:58;11.87;;;6.17;;
21843;SDS011;11084;52.482;9.108;2022-09-13T10:41:30;8.17;;;5.53;;
21843;SDS011;11084;52.482;9.108;2022-09-13T10:44:00;12.53;;;6.37;;
21843;SDS011;11084;52.482;9.108;2022-09-13T10:46:30;10.30;;;5.60;;
21843;SDS011;11084;52.482;9.108;2022-09-13T10:49:00;9.57;;;5.03;;
21843;SDS011;11084;52.482;9.108;2022-09-13T10:54:09;4.83;;;3.23;;
21843;SDS011;11084;52.482;9.108;2022-09-13T10:56:50;9.67;;;3.33;;
21843;SDS011;11084;52.482;9.108;2022-09-13T10:59:27;6.27;;;2.97;;
21843;SDS011;11084;52.482;9.108;2022-09-13T11:08:37;7.20;;;3.53;;
21843;SDS011;11084;52.482;9.108;2022-09-13T11:20:22;10.00;;;5.20;;
21843;SDS011;11084;52.482;9.108;2022-09-13T11:26:34;9.87;;;5.90;;
21843;SDS011;11084;52.482;9.108;2022-09-13T11:35:16;4.37;;;2.77;;
21843;SDS011;11084;52.482;9.108;2022-09-13T11:38:11;3.53;;;1.80;;
21843;SDS011;11084;52.482;9.108;2022-09-13T11:40:50;2.60;;;1.70;;
21843;SDS011;11084;52.482;9.108;2022-09-13T11:55:29;3.63;;;1.90;;
21843;SDS011;11084;52.482;9.108;2022-09-13T11:58:27;3.77;;;1.93;;
21843;SDS011;11084;52.482;9.108;2022-09-13T12:01:05;4.97;;;2.23;;
21843;SDS011;11084;52.482;9.108;2022-09-13T12:06:17;2.63;;;1.47;;
21843;SDS011;11084;52.482;9.108;2022-09-13T12:08:49;6.50;;;1.67;;
21843;SDS011;11084;52.482;9.108;2022-09-13T12:11:23;3.87;;;1.50;;
21843;SDS011;11084;52.482;9.108;2022-09-13T12:14:04;1.90;;;1.20;;
21843;SDS011;11084;52.482;9.108;2022-09-13T12:19:21;2.30;;;1.20;;
21843;SDS011;11084;52.482;9.108;2022-09-13T12:21:55;2.90;;;1.20;;
21843;SDS011;11084;52.482;9.108;2022-09-13T12:24:58;2.07;;;1.00;;
21843;SDS011;11084;52.482;9.108;2022-09-13T12:27:54;7.93;;;1.10;;
21843;SDS011;11084;52.482;9.108;2022-09-13T12:30:18;2.63;;;1.00;;
21843;SDS011;11084;52.482;9.108;2022-09-13T12:32:46;8.93;;;1.10;;
21843;SDS011;11084;52.482;9.108;2022-09-13T12:53:07;8.03;;;2.83;;
21843;SDS011;11084;52.482;9.108;2022-09-13T13:02:24;3.70;;;1.00;;
21843;SDS011;11084;52.482;9.108;2022-09-13T13:05:04;1.83;;;0.97;;
21843;SDS011;11084;52.482;9.108;2022-09-13T13:07:51;4.07;;;1.20;;
21843;SDS011;11084;52.482;9.108;2022-09-13T13:18:21;3.50;;;0.63;;
21843;SDS011;11084;52.482;9.108;2022-09-13T13:23:35;3.37;;;0.80;;
21843;SDS011;11084;52.482;9.108;2022-09-13T13:26:05;2.37;;;0.60;;
21843;SDS011;11084;52.482;9.108;2022-09-13T13:37:34;2.20;;;0.63;;
21843;SDS011;11084;52.482;9.108;2022-09-13T13:39:35;1.77;;;0.70;;
21843;SDS011;11084;52.482;9.108;2022-09-13T13:42:30;4.07;;;0.60;;
21843;SDS011;11084;52.482;9.108;2022-09-13T13:50:14;7.43;;;0.77;;
21843;SDS011;11084;52.482;9.108;2022-09-13T13:52:56;5.00;;;0.67;;
21843;SDS011;11084;52.482;9.108;2022-09-13T13:58:14;2.47;;;0.70;;
21843;SDS011;11084;52.482;9.108;2022-09-13T14:01:34;8.23;;;0.73;;
21843;SDS011;11084;52.482;9.108;2022-09-13T14:04:22;1.80;;;0.60;;
21843;SDS011;11084;52.482;9.108;2022-09-13T14:16:47;1.43;;;0.50;;
21843;SDS011;11084;52.482;9.108;2022-09-13T14:19:41;1.93;;;0.60;;
21843;SDS011;11084;52.482;9.108;2022-09-13T14:24:44;5.00;;;0.60;;
21843;SDS011;11084;52.482;9.108;2022-09-13T14:27:16;1.70;;;0.60;;
21843;SDS011;11084;52.482;9.108;2022-09-13T14:29:51;4.50;;;0.90;;
21843;SDS011;11084;52.482;9.108;2022-09-13T14:32:21;4.13;;;0.70;;
21843;SDS011;11084;52.482;9.108;2022-09-13T14:34:52;1.10;;;0.40;;
21843;SDS011;11084;52.482;9.108;2022-09-13T14:37:33;1.93;;;0.50;;
21843;SDS011;11084;52.482;9.108;2022-09-13T14:42:53;3.50;;;0.60;;
21843;SDS011;11084;52.482;9.108;2022-09-13T14:45:25;2.17;;;1.07;;
21843;SDS011;11084;52.482;9.108;2022-09-13T14:48:09;2.57;;;0.57;;
21843;SDS011;11084;52.482;9.108;2022-09-13T14:53:21;2.67;;;0.70;;
21843;SDS011;11084;52.482;9.108;2022-09-13T14:55:54;2.77;;;0.57;;
21843;SDS011;11084;52.482;9.108;2022-09-13T14:58:30;5.90;;;0.80;;
21843;SDS011;11084;52.482;9.108;2022-09-13T15:01:07;4.63;;;0.60;;
21843;SDS011;11084;52.482;9.108;2022-09-13T15:03:42;2.23;;;0.43;;
21843;SDS011;11084;52.482;9.108;2022-09-13T15:06:23;0.73;;;0.30;;
21843;SDS011;11084;52.482;9.108;2022-09-13T15:08:53;3.77;;;0.57;;
21843;SDS011;11084;52.482;9.108;2022-09-13T15:11:54;2.43;;;0.60;;
21843;SDS011;11084;52.482;9.108;2022-09-13T15:19:42;7.60;;;0.60;;
21843;SDS011;11084;52.482;9.108;2022-09-13T15:22:21;2.40;;;0.50;;
21843;SDS011;11084;52.482;9.108;2022-09-13T15:24:51;1.73;;;0.30;;
21843;SDS011;11084;52.482;9.108;2022-09-13T15:29:57;0.67;;;0.50;;
21843;SDS011;11084;52.482;9.108;2022-09-13T15:32:34;0.83;;;0.43;;
21843;SDS011;11084;52.482;9.108;2022-09-13T15:35:23;2.20;;;0.53;;
21843;SDS011;11084;52.482;9.108;2022-09-13T15:37:59;2.77;;;0.80;;
21843;SDS011;11084;52.482;9.108;2022-09-13T15:40:45;2.17;;;0.50;;
21843;SDS011;11084;52.482;9.108;2022-09-13T15:43:41;0.77;;;0.60;;
21843;SDS011;11084;52.482;9.108;2022-09-13T15:46:09;6.10;;;0.50;;
21843;SDS011;11084;52.482;9.108;2022-09-13T15:48:39;1.13;;;0.60;;
21843;SDS011;11084;52.482;9.108;2022-09-13T15:51:15;2.53;;;0.80;;
21843;SDS011;11084;52.482;9.108;2022-09-13T15:53:43;1.87;;;0.50;;
21843;SDS011;11084;52.482;9.108;2022-09-13T15:56:17;4.73;;;0.60;;
21843;SDS011;11084;52.482;9.108;2022-09-13T15:58:47;7.33;;;0.60;;
21843;SDS011;11084;52.482;9.108;2022-09-13T16:01:14;3.40;;;0.63;;
21843;SDS011;11084;52.482;9.108;2022-09-13T16:03:40;2.77;;;0.43;;
21843;SDS011;11084;52.482;9.108;2022-09-13T16:06:07;2.20;;;0.57;;
21843;SDS011;11084;52.482;9.108;2022-09-13T16:08:35;1.87;;;0.53;;
21843;SDS011;11084;52.482;9.108;2022-09-13T16:11:02;2.93;;;0.40;;
21843;SDS011;11084;52.482;9.108;2022-09-13T16:13:31;13.87;;;0.80;;
21843;SDS011;11084;52.482;9.108;2022-09-13T16:15:57;2.00;;;0.60;;
21843;SDS011;11084;52.482;9.108;2022-09-13T16:18:24;2.00;;;0.33;;
21843;SDS011;11084;52.482;9.108;2022-09-13T16:20:50;2.63;;;0.60;;
21843;SDS011;11084;52.482;9.108;2022-09-13T16:23:19;0.93;;;0.57;;
21843;SDS011;11084;52.482;9.108;2022-09-13T16:25:45;2.87;;;0.60;;
21843;SDS011;11084;52.482;9.108;2022-09-13T16:28:14;5.20;;;0.80;;
21843;SDS011;11084;52.482;9.108;2022-09-13T16:30:45;1.33;;;0.40;;
21843;SDS011;11084;52.482;9.108;2022-09-13T16:33:12;13.33;;;0.90;;
21843;SDS011;11084;52.482;9.108;2022-09-13T16:35:38;3.30;;;0.80;;
21843;SDS011;11084;52.482;9.108;2022-09-13T16:38:04;3.83;;;0.50;;
21843;SDS011;11084;52.482;9.108;2022-09-13T16:40:30;2.57;;;0.73;;
21843;SDS011;11084;52.482;9.108;2022-09-13T16:42:56;6.60;;;0.77;;
21843;SDS011;11084;52.482;9.108;2022-09-13T16:45:22;8.17;;;1.00;;
21843;SDS011;11084;52.482;9.108;2022-09-13T16:47:48;2.40;;;0.60;;
21843;SDS011;11084;52.482;9.108;2022-09-13T16:50:16;3.57;;;0.90;;
21843;SDS011;11084;52.482;9.108;2022-09-13T16:52:42;1.57;;;0.53;;
21843;SDS011;11084;52.482;9.108;2022-09-13T16:55:10;9.03;;;1.00;;
21843;SDS011;11084;52.482;9.108;2022-09-13T16:57:36;3.13;;;0.60;;
21843;SDS011;11084;52.482;9.108;2022-09-13T17:00:03;6.73;;;0.67;;
21843;SDS011;11084;52.482;9.108;2022-09-13T17:02:33;6.13;;;0.63;;
21843;SDS011;11084;52.482;9.108;2022-09-13T17:04:59;2.17;;;0.83;;
21843;SDS011;11084;52.482;9.108;2022-09-13T17:07:27;4.90;;;0.67;;
21843;SDS011;11084;52.482;9.108;2022-09-13T17:09:53;4.07;;;0.70;;
21843;SDS011;11084;52.482;9.108;2022-09-13T17:12:20;4.83;;;0.90;;
21843;SDS011;11084;52.482;9.108;2022-09-13T17:14:46;1.43;;;0.60;;
21843;SDS011;11084;52.482;9.108;2022-09-13T17:17:15;2.43;;;0.47;;
21843;SDS011;11084;52.482;9.108;2022-09-13T17:19:41;3.30;;;0.63;;
21843;SDS011;11084;52.482;9.108;2022-09-13T17:22:10;3.70;;;0.60;;
21843;SDS011;11084;52.482;9.108;2022-09-13T17:24:37;2.93;;;0.63;;
21843;SDS011;11084;52.482;9.108;2022-09-13T17:27:03;11.23;;;0.53;;
21843;SDS011;11084;52.482;9.108;2022-09-13T17:29:31;5.13;;;0.73;;
21843;SDS011;11084;52.482;9.108;2022-09-13T17:31:59;1.93;;;0.70;;
21843;SDS011;11084;52.482;9.108;2022-09-13T17:34:30;6.70;;;0.80;;
21843;SDS011;11084;52.482;9.108;2022-09-13T17:36:58;4.00;;;0.67;;
21843;SDS011;11084;52.482;9.108;2022-09-13T17:39:27;4.60;;;0.60;;
21843;SDS011;11084;52.482;9.108;2022-09-13T17:41:53;1.20;;;0.40;;
21843;SDS011;11084;52.482;9.108;2022-09-13T17:44:20;4.30;;;0.70;;
21843;SDS011;11084;52.482;9.108;2022-09-13T17:46:46;5.20;;;0.67;;
21843;SDS011;11084;52.482;9.108;2022-09-13T17:49:12;3.00;;;0.80;;
21843;SDS011;11084;52.482;9.108;2022-09-13T17:51:38;2.57;;;0.60;;
21843;SDS011;11084;52.482;9.108;2022-09-13T17:54:05;5.17;;;0.63;;
21843;SDS011;11084;52.482;9.108;2022-09-13T17:56:37;1.23;;;0.37;;
21843;SDS011;11084;52.482;9.108;2022-09-13T17:59:16;2.93;;;0.60;;
21843;SDS011;11084;52.482;9.108;2022-09-13T18:01:46;1.47;;;0.50;;
21843;SDS011;11084;52.482;9.108;2022-09-13T18:04:18;2.07;;;0.90;;
21843;SDS011;11084;52.482;9.108;2022-09-13T18:06:51;3.13;;;0.70;;
21843;SDS011;11084;52.482;9.108;2022-09-13T18:09:18;1.30;;;0.47;;
21843;SDS011;11084;52.482;9.108;2022-09-13T18:11:44;7.23;;;0.80;;
21843;SDS011;11084;52.482;9.108;2022-09-13T18:14:12;3.60;;;0.83;;
21843;SDS011;11084;52.482;9.108;2022-09-13T18:16:44;2.23;;;0.70;;
21843;SDS011;11084;52.482;9.108;2022-09-13T18:19:11;5.40;;;0.60;;
21843;SDS011;11084;52.482;9.108;2022-09-13T18:21:38;4.10;;;0.80;;
21843;SDS011;11084;52.482;9.108;2022-09-13T18:24:07;8.50;;;1.00;;
21843;SDS011;11084;52.482;9.108;2022-09-13T18:26:33;2.97;;;0.80;;
21843;SDS011;11084;52.482;9.108;2022-09-13T18:29:05;8.83;;;0.93;;
21843;SDS011;11084;52.482;9.108;2022-09-13T18:31:39;2.60;;;0.60;;
21843;SDS011;11084;52.482;9.108;2022-09-13T18:34:07;3.87;;;0.50;;
21843;SDS011;11084;52.482;9.108;2022-09-13T18:36:36;1.30;;;0.57;;
21843;SDS011;11084;52.482;9.108;2022-09-13T18:39:03;3.73;;;1.07;;
21843;SDS011;11084;52.482;9.108;2022-09-13T18:41:33;4.20;;;0.70;;
21843;SDS011;11084;52.482;9.108;2022-09-13T18:44:01;4.73;;;0.90;;
21843;SDS011;11084;52.482;9.108;2022-09-13T18:46:29;9.37;;;1.10;;
21843;SDS011;11084;52.482;9.108;2022-09-13T18:48:56;10.83;;;0.70;;